sensor_id;sensor_type;location;lat;lon;timestamp;pressure;altitude;pressure_sealevel;temperature
79492;BMP180;73788;53.048;18.472;2023-11-21T00:00:53;100480.80;;;
79492;BMP180;73788;53.048;18.472;2023-11-21T00:03:37;100484.40;;;
79492;BMP180;73788;53.048;18.472;2023-11-21T00:06:04;100486.00;;;
79492;BMP180;73788;53.048;18.472;2023-11-21T00:08:36;100488.80;;;
79492;BMP180;73788;53.048;18.472;2023-11-21T00:11:04;100487.60;;;
79492;BMP180;73788;53.048;18.472;2023-11-21T00:13:32;100487.60;;;
79492;BMP180;73788;53.048;18.472;2023-11-21T00:16:00;100489.00;;;
79492;BMP180;73788;53.048;18.472;2023-11-21T00:18:27;100492.60;;;
79492;BMP180;73788;53.048;18.472;2023-11-21T00:20:54;100501.80;;;
79492;BMP180;73788;53.048;18.472;2023-11-21T00:23:21;100497.40;;;
79492;BMP180;73788;53.048;18.472;2023-11-21T00:25:48;100496.80;;;
79492;BMP180;73788;53.048;18.472;2023-11-21T00:28:16;100502.00;;;
79492;BMP180;73788;53.048;18.472;2023-11-21T00:30:43;100501.40;;;
79492;BMP180;73788;53.048;18.472;2023-11-21T00:33:10;100508.20;;;
79492;BMP180;73788;53.048;18.472;2023-11-21T00:35:37;100516.20;;;
79492;BMP180;73788;53.048;18.472;2023-11-21T00:38:04;100517.20;;;
79492;BMP180;73788;53.048;18.472;2023-11-21T00:40:32;100523.00;;;
79492;BMP180;73788;53.048;18.472;2023-11-21T00:42:59;100524.00;;;
79492;BMP180;73788;53.048;18.472;2023-11-21T00:45:26;100522.40;;;
79492;BMP180;73788;53.048;18.472;2023-11-21T00:47:53;100525.00;;;
79492;BMP180;73788;53.048;18.472;2023-11-21T00:50:21;100523.20;;;
79492;BMP180;73788;53.048;18.472;2023-11-21T00:52:48;100523.00;;;
79492;BMP180;73788;53.048;18.472;2023-11-21T00:55:16;100527.00;;;
79492;BMP180;73788;53.048;18.472;2023-11-21T00:57:44;100538.60;;;
79492;BMP180;73788;53.048;18.472;2023-11-21T01:00:12;100537.00;;;
79492;BMP180;73788;53.048;18.472;2023-11-21T01:02:44;100541.00;;;
79492;BMP180;73788;53.048;18.472;2023-11-21T01:05:12;100541.20;;;
79492;BMP180;73788;53.048;18.472;2023-11-21T01:07:39;100546.60;;;
79492;BMP180;73788;53.048;18.472;2023-11-21T01:10:06;100548.00;;;
79492;BMP180;73788;53.048;18.472;2023-11-21T01:12:37;100553.20;;;
79492;BMP180;73788;53.048;18.472;2023-11-21T01:15:05;100556.20;;;
79492;BMP180;73788;53.048;18.472;2023-11-21T01:17:38;100555.60;;;
79492;BMP180;73788;53.048;18.472;2023-11-21T01:20:08;100558.80;;;
79492;BMP180;73788;53.048;18.472;2023-11-21T01:22:39;100561.20;;;
79492;BMP180;73788;53.048;18.472;2023-11-21T01:25:06;100568.40;;;
79492;BMP180;73788;53.048;18.472;2023-11-21T01:27:34;100561.60;;;
79492;BMP180;73788;53.048;18.472;2023-11-21T01:30:03;100561.60;;;
79492;BMP180;73788;53.048;18.472;2023-11-21T01:32:31;100563.00;;;
79492;BMP180;73788;53.048;18.472;2023-11-21T01:34:59;100562.20;;;
79492;BMP180;73788;53.048;18.472;2023-11-21T01:37:26;100568.20;;;
79492;BMP180;73788;53.048;18.472;2023-11-21T01:39:54;100561.00;;;
79492;BMP180;73788;53.048;18.472;2023-11-21T01:42:22;100559.80;;;
79492;BMP180;73788;53.048;18.472;2023-11-21T01:44:50;100562.00;;;
79492;BMP180;73788;53.048;18.472;2023-11-21T01:47:17;100566.80;;;
79492;BMP180;73788;53.048;18.472;2023-11-21T01:49:45;100566.00;;;
79492;BMP180;73788;53.048;18.472;2023-11-21T01:52:13;100568.20;;;
79492;BMP180;73788;53.048;18.472;2023-11-21T01:54:41;100567.20;;;
79492;BMP180;73788;53.048;18.472;2023-11-21T01:57:09;100570.40;;;
79492;BMP180;73788;53.048;18.472;2023-11-21T01:59:37;100568.80;;;
79492;BMP180;73788;53.048;18.472;2023-11-21T02:02:08;100571.40;;;
79492;BMP180;73788;53.048;18.472;2023-11-21T02:04:37;100572.80;;;
79492;BMP180;73788;53.048;18.472;2023-11-21T02:07:04;100577.00;;;
79492;BMP180;73788;53.048;18.472;2023-11-21T02:09:34;100576.40;;;
79492;BMP180;73788;53.048;18.472;2023-11-21T02:12:05;100571.40;;;
79492;BMP180;73788;53.048;18.472;2023-11-21T02:14:32;100571.40;;;
79492;BMP180;73788;53.048;18.472;2023-11-21T02:17:00;100577.60;;;
79492;BMP180;73788;53.048;18.472;2023-11-21T02:19:27;100576.80;;;
79492;BMP180;73788;53.048;18.472;2023-11-21T02:21:57;100586.20;;;
79492;BMP180;73788;53.048;18.472;2023-11-21T02:24:32;100583.60;;;
79492;BMP180;73788;53.048;18.472;2023-11-21T02:26:59;100581.00;;;
79492;BMP180;73788;53.048;18.472;2023-11-21T02:29:26;100582.80;;;
79492;BMP180;73788;53.048;18.472;2023-11-21T02:31:57;100587.20;;;
79492;BMP180;73788;53.048;18.472;2023-11-21T02:34:24;100587.20;;;
79492;BMP180;73788;53.048;18.472;2023-11-21T02:36:51;100591.20;;;
79492;BMP180;73788;53.048;18.472;2023-11-21T02:39:19;100596.00;;;
79492;BMP180;73788;53.048;18.472;2023-11-21T02:41:49;100599.60;;;
79492;BMP180;73788;53.048;18.472;2023-11-21T02:44:16;100596.00;;;
79492;BMP180;73788;53.048;18.472;2023-11-21T02:46:43;100603.80;;;
79492;BMP180;73788;53.048;18.472;2023-11-21T02:49:10;100605.60;;;
79492;BMP180;73788;53.048;18.472;2023-11-21T02:51:38;100605.20;;;
79492;BMP180;73788;53.048;18.472;2023-11-21T02:54:06;100614.00;;;
79492;BMP180;73788;53.048;18.472;2023-11-21T02:56:33;100617.00;;;
79492;BMP180;73788;53.048;18.472;2023-11-21T02:59:01;100618.20;;;
79492;BMP180;73788;53.048;18.472;2023-11-21T03:01:28;100622.20;;;
79492;BMP180;73788;53.048;18.472;2023-11-21T03:03:55;100626.60;;;
79492;BMP180;73788;53.048;18.472;2023-11-21T03:06:23;100627.00;;;
79492;BMP180;73788;53.048;18.472;2023-11-21T03:08:50;100628.60;;;
79492;BMP180;73788;53.048;18.472;2023-11-21T03:11:17;100629.00;;;
79492;BMP180;73788;53.048;18.472;2023-11-21T03:13:45;100629.80;;;
79492;BMP180;73788;53.048;18.472;2023-11-21T03:16:12;100629.00;;;
79492;BMP180;73788;53.048;18.472;2023-11-21T03:18:40;100629.60;;;
79492;BMP180;73788;53.048;18.472;2023-11-21T03:21:07;100633.20;;;
79492;BMP180;73788;53.048;18.472;2023-11-21T03:23:37;100633.20;;;
79492;BMP180;73788;53.048;18.472;2023-11-21T03:26:05;100633.00;;;
79492;BMP180;73788;53.048;18.472;2023-11-21T03:28:35;100636.20;;;
79492;BMP180;73788;53.048;18.472;2023-11-21T03:31:02;100635.00;;;
79492;BMP180;73788;53.048;18.472;2023-11-21T03:33:29;100634.20;;;
79492;BMP180;73788;53.048;18.472;2023-11-21T03:35:59;100635.20;;;
79492;BMP180;73788;53.048;18.472;2023-11-21T03:38:27;100635.40;;;
79492;BMP180;73788;53.048;18.472;2023-11-21T03:40:54;100640.40;;;
79492;BMP180;73788;53.048;18.472;2023-11-21T03:43:21;100640.60;;;
79492;BMP180;73788;53.048;18.472;2023-11-21T03:45:48;100645.40;;;
79492;BMP180;73788;53.048;18.472;2023-11-21T03:48:15;100642.60;;;
79492;BMP180;73788;53.048;18.472;2023-11-21T03:50:43;100646.40;;;
79492;BMP180;73788;53.048;18.472;2023-11-21T03:53:10;100646.20;;;
79492;BMP180;73788;53.048;18.472;2023-11-21T03:55:37;100649.20;;;
79492;BMP180;73788;53.048;18.472;2023-11-21T03:58:04;100643.80;;;
79492;BMP180;73788;53.048;18.472;2023-11-21T04:00:31;100647.20;;;
79492;BMP180;73788;53.048;18.472;2023-11-21T04:02:58;100647.80;;;
79492;BMP180;73788;53.048;18.472;2023-11-21T04:05:25;100648.80;;;
79492;BMP180;73788;53.048;18.472;2023-11-21T04:07:52;100649.60;;;
79492;BMP180;73788;53.048;18.472;2023-11-21T04:10:20;100654.40;;;
79492;BMP180;73788;53.048;18.472;2023-11-21T04:12:47;100648.20;;;
79492;BMP180;73788;53.048;18.472;2023-11-21T04:15:15;100647.20;;;
79492;BMP180;73788;53.048;18.472;2023-11-21T04:17:42;100650.40;;;
79492;BMP180;73788;53.048;18.472;2023-11-21T04:20:10;100658.40;;;
79492;BMP180;73788;53.048;18.472;2023-11-21T04:22:41;100661.00;;;
79492;BMP180;73788;53.048;18.472;2023-11-21T04:25:11;100666.60;;;
79492;BMP180;73788;53.048;18.472;2023-11-21T04:27:43;100665.20;;;
79492;BMP180;73788;53.048;18.472;2023-11-21T04:30:12;100672.60;;;
79492;BMP180;73788;53.048;18.472;2023-11-21T04:32:40;100674.20;;;
79492;BMP180;73788;53.048;18.472;2023-11-21T04:35:07;100674.20;;;
79492;BMP180;73788;53.048;18.472;2023-11-21T04:37:35;100680.20;;;
79492;BMP180;73788;53.048;18.472;2023-11-21T04:40:03;100681.60;;;
79492;BMP180;73788;53.048;18.472;2023-11-21T04:42:35;100687.00;;;
79492;BMP180;73788;53.048;18.472;2023-11-21T04:45:07;100691.20;;;
79492;BMP180;73788;53.048;18.472;2023-11-21T04:47:38;100695.60;;;
79492;BMP180;73788;53.048;18.472;2023-11-21T04:50:06;100696.40;;;
79492;BMP180;73788;53.048;18.472;2023-11-21T04:52:33;100700.40;;;
79492;BMP180;73788;53.048;18.472;2023-11-21T04:55:00;100708.60;;;
79492;BMP180;73788;53.048;18.472;2023-11-21T04:57:28;100712.00;;;
79492;BMP180;73788;53.048;18.472;2023-11-21T04:59:55;100709.40;;;
79492;BMP180;73788;53.048;18.472;2023-11-21T05:02:23;100714.20;;;
79492;BMP180;73788;53.048;18.472;2023-11-21T05:04:50;100718.80;;;
79492;BMP180;73788;53.048;18.472;2023-11-21T05:07:17;100717.80;;;
79492;BMP180;73788;53.048;18.472;2023-11-21T05:09:45;100721.20;;;
79492;BMP180;73788;53.048;18.472;2023-11-21T05:12:13;100725.40;;;
79492;BMP180;73788;53.048;18.472;2023-11-21T05:14:41;100734.20;;;
79492;BMP180;73788;53.048;18.472;2023-11-21T05:17:08;100737.40;;;
79492;BMP180;73788;53.048;18.472;2023-11-21T05:19:35;100741.40;;;
79492;BMP180;73788;53.048;18.472;2023-11-21T05:22:03;100749.60;;;
79492;BMP180;73788;53.048;18.472;2023-11-21T05:24:30;100753.20;;;
79492;BMP180;73788;53.048;18.472;2023-11-21T05:26:58;100757.00;;;
79492;BMP180;73788;53.048;18.472;2023-11-21T05:29:25;100757.60;;;
79492;BMP180;73788;53.048;18.472;2023-11-21T05:31:52;100761.20;;;
79492;BMP180;73788;53.048;18.472;2023-11-21T05:34:20;100764.60;;;
79492;BMP180;73788;53.048;18.472;2023-11-21T05:36:47;100760.60;;;
79492;BMP180;73788;53.048;18.472;2023-11-21T05:39:15;100758.60;;;
79492;BMP180;73788;53.048;18.472;2023-11-21T05:41:44;100752.60;;;
79492;BMP180;73788;53.048;18.472;2023-11-21T05:44:11;100760.20;;;
79492;BMP180;73788;53.048;18.472;2023-11-21T05:46:39;100760.00;;;
79492;BMP180;73788;53.048;18.472;2023-11-21T05:49:06;100761.80;;;
79492;BMP180;73788;53.048;18.472;2023-11-21T05:51:34;100766.80;;;
79492;BMP180;73788;53.048;18.472;2023-11-21T05:54:02;100767.00;;;
79492;BMP180;73788;53.048;18.472;2023-11-21T05:56:29;100771.00;;;
79492;BMP180;73788;53.048;18.472;2023-11-21T05:58:56;100776.00;;;
79492;BMP180;73788;53.048;18.472;2023-11-21T06:01:23;100779.20;;;
79492;BMP180;73788;53.048;18.472;2023-11-21T06:03:50;100781.20;;;
79492;BMP180;73788;53.048;18.472;2023-11-21T06:06:17;100789.40;;;
79492;BMP180;73788;53.048;18.472;2023-11-21T06:08:46;100798.40;;;
79492;BMP180;73788;53.048;18.472;2023-11-21T06:11:13;100799.20;;;
79492;BMP180;73788;53.048;18.472;2023-11-21T06:13:40;100801.80;;;
79492;BMP180;73788;53.048;18.472;2023-11-21T06:16:08;100801.20;;;
79492;BMP180;73788;53.048;18.472;2023-11-21T06:18:36;100800.60;;;
79492;BMP180;73788;53.048;18.472;2023-11-21T06:21:04;100817.80;;;
79492;BMP180;73788;53.048;18.472;2023-11-21T06:23:31;100823.40;;;
79492;BMP180;73788;53.048;18.472;2023-11-21T06:25:58;100828.80;;;
79492;BMP180;73788;53.048;18.472;2023-11-21T06:28:25;100833.40;;;
79492;BMP180;73788;53.048;18.472;2023-11-21T06:30:52;100836.80;;;
79492;BMP180;73788;53.048;18.472;2023-11-21T06:33:20;100835.40;;;
79492;BMP180;73788;53.048;18.472;2023-11-21T06:35:48;100832.40;;;
79492;BMP180;73788;53.048;18.472;2023-11-21T06:38:16;100842.80;;;
79492;BMP180;73788;53.048;18.472;2023-11-21T06:40:44;100846.40;;;
79492;BMP180;73788;53.048;18.472;2023-11-21T06:43:12;100853.80;;;
79492;BMP180;73788;53.048;18.472;2023-11-21T06:45:41;100856.00;;;
79492;BMP180;73788;53.048;18.472;2023-11-21T06:48:08;100866.60;;;
79492;BMP180;73788;53.048;18.472;2023-11-21T06:50:35;100867.80;;;
79492;BMP180;73788;53.048;18.472;2023-11-21T06:53:02;100870.60;;;
79492;BMP180;73788;53.048;18.472;2023-11-21T06:55:30;100873.20;;;
79492;BMP180;73788;53.048;18.472;2023-11-21T06:57:58;100881.00;;;
79492;BMP180;73788;53.048;18.472;2023-11-21T07:00:27;100881.60;;;
79492;BMP180;73788;53.048;18.472;2023-11-21T07:02:57;100882.80;;;
79492;BMP180;73788;53.048;18.472;2023-11-21T07:05:24;100884.60;;;
79492;BMP180;73788;53.048;18.472;2023-11-21T07:07:51;100890.40;;;
79492;BMP180;73788;53.048;18.472;2023-11-21T07:10:20;100895.80;;;
79492;BMP180;73788;53.048;18.472;2023-11-21T07:12:47;100889.80;;;
79492;BMP180;73788;53.048;18.472;2023-11-21T07:15:15;100893.20;;;
79492;BMP180;73788;53.048;18.472;2023-11-21T07:17:42;100901.60;;;
79492;BMP180;73788;53.048;18.472;2023-11-21T07:20:11;100907.40;;;
79492;BMP180;73788;53.048;18.472;2023-11-21T07:22:38;100903.60;;;
79492;BMP180;73788;53.048;18.472;2023-11-21T07:25:06;100905.40;;;
79492;BMP180;73788;53.048;18.472;2023-11-21T07:27:34;100910.40;;;
79492;BMP180;73788;53.048;18.472;2023-11-21T07:30:03;100909.00;;;
79492;BMP180;73788;53.048;18.472;2023-11-21T07:32:32;100916.80;;;
79492;BMP180;73788;53.048;18.472;2023-11-21T07:34:59;100923.40;;;
79492;BMP180;73788;53.048;18.472;2023-11-21T07:37:28;100921.20;;;
79492;BMP180;73788;53.048;18.472;2023-11-21T07:39:55;100928.00;;;
79492;BMP180;73788;53.048;18.472;2023-11-21T07:42:23;100932.60;;;
79492;BMP180;73788;53.048;18.472;2023-11-21T07:44:53;100934.00;;;
79492;BMP180;73788;53.048;18.472;2023-11-21T07:47:20;100934.20;;;
79492;BMP180;73788;53.048;18.472;2023-11-21T07:49:47;100937.20;;;
79492;BMP180;73788;53.048;18.472;2023-11-21T07:52:14;100940.40;;;
79492;BMP180;73788;53.048;18.472;2023-11-21T07:54:44;100944.60;;;
79492;BMP180;73788;53.048;18.472;2023-11-21T07:57:11;100946.40;;;
79492;BMP180;73788;53.048;18.472;2023-11-21T07:59:41;100943.00;;;
79492;BMP180;73788;53.048;18.472;2023-11-21T08:02:08;100947.60;;;
79492;BMP180;73788;53.048;18.472;2023-11-21T08:04:35;100944.20;;;
79492;BMP180;73788;53.048;18.472;2023-11-21T08:07:02;100952.40;;;
79492;BMP180;73788;53.048;18.472;2023-11-21T08:09:30;100955.00;;;
79492;BMP180;73788;53.048;18.472;2023-11-21T08:11:58;100947.40;;;
79492;BMP180;73788;53.048;18.472;2023-11-21T08:14:27;100950.20;;;
79492;BMP180;73788;53.048;18.472;2023-11-21T08:16:54;100952.20;;;
79492;BMP180;73788;53.048;18.472;2023-11-21T08:19:24;100949.40;;;
79492;BMP180;73788;53.048;18.472;2023-11-21T08:21:54;100954.00;;;
79492;BMP180;73788;53.048;18.472;2023-11-21T08:24:22;100953.20;;;
79492;BMP180;73788;53.048;18.472;2023-11-21T08:26:49;100961.40;;;
79492;BMP180;73788;53.048;18.472;2023-11-21T08:29:17;100958.20;;;
79492;BMP180;73788;53.048;18.472;2023-11-21T08:31:45;100958.80;;;
79492;BMP180;73788;53.048;18.472;2023-11-21T08:34:13;100958.40;;;
79492;BMP180;73788;53.048;18.472;2023-11-21T08:36:43;100957.40;;;
79492;BMP180;73788;53.048;18.472;2023-11-21T08:39:10;100952.20;;;
79492;BMP180;73788;53.048;18.472;2023-11-21T08:41:37;100958.20;;;
79492;BMP180;73788;53.048;18.472;2023-11-21T08:44:04;100945.80;;;
79492;BMP180;73788;53.048;18.472;2023-11-21T08:46:35;100955.60;;;
79492;BMP180;73788;53.048;18.472;2023-11-21T08:49:03;100960.80;;;
79492;BMP180;73788;53.048;18.472;2023-11-21T08:51:30;100955.40;;;
79492;BMP180;73788;53.048;18.472;2023-11-21T08:53:58;100961.40;;;
79492;BMP180;73788;53.048;18.472;2023-11-21T08:56:27;100964.40;;;
79492;BMP180;73788;53.048;18.472;2023-11-21T08:58:54;100966.00;;;
79492;BMP180;73788;53.048;18.472;2023-11-21T09:01:22;100967.00;;;
79492;BMP180;73788;53.048;18.472;2023-11-21T09:03:50;100967.40;;;
79492;BMP180;73788;53.048;18.472;2023-11-21T09:06:17;100971.80;;;
79492;BMP180;73788;53.048;18.472;2023-11-21T09:08:44;100974.00;;;
79492;BMP180;73788;53.048;18.472;2023-11-21T09:11:11;100973.20;;;
79492;BMP180;73788;53.048;18.472;2023-11-21T09:13:38;100977.20;;;
79492;BMP180;73788;53.048;18.472;2023-11-21T09:16:06;100976.00;;;
79492;BMP180;73788;53.048;18.472;2023-11-21T09:18:33;100976.20;;;
79492;BMP180;73788;53.048;18.472;2023-11-21T09:21:01;100982.00;;;
79492;BMP180;73788;53.048;18.472;2023-11-21T09:23:28;100988.60;;;
79492;BMP180;73788;53.048;18.472;2023-11-21T09:25:55;100989.00;;;
79492;BMP180;73788;53.048;18.472;2023-11-21T09:28:23;100982.60;;;
79492;BMP180;73788;53.048;18.472;2023-11-21T09:30:51;100984.60;;;
79492;BMP180;73788;53.048;18.472;2023-11-21T09:33:18;100987.60;;;
79492;BMP180;73788;53.048;18.472;2023-11-21T09:35:45;100991.20;;;
79492;BMP180;73788;53.048;18.472;2023-11-21T09:38:12;100994.40;;;
79492;BMP180;73788;53.048;18.472;2023-11-21T09:40:39;101001.60;;;
79492;BMP180;73788;53.048;18.472;2023-11-21T09:43:15;101007.00;;;
79492;BMP180;73788;53.048;18.472;2023-11-21T09:45:53;101004.40;;;
79492;BMP180;73788;53.048;18.472;2023-11-21T09:48:23;101004.60;;;
79492;BMP180;73788;53.048;18.472;2023-11-21T09:50:53;101004.00;;;
79492;BMP180;73788;53.048;18.472;2023-11-21T09:53:22;101004.60;;;
79492;BMP180;73788;53.048;18.472;2023-11-21T09:55:53;101004.80;;;
79492;BMP180;73788;53.048;18.472;2023-11-21T09:58:21;101009.00;;;
79492;BMP180;73788;53.048;18.472;2023-11-21T10:00:57;101013.80;;;
79492;BMP180;73788;53.048;18.472;2023-11-21T10:03:26;101018.80;;;
79492;BMP180;73788;53.048;18.472;2023-11-21T10:05:56;101017.80;;;
79492;BMP180;73788;53.048;18.472;2023-11-21T10:08:29;101018.40;;;
79492;BMP180;73788;53.048;18.472;2023-11-21T10:10:56;101012.40;;;
79492;BMP180;73788;53.048;18.472;2023-11-21T10:13:24;101016.80;;;
79492;BMP180;73788;53.048;18.472;2023-11-21T10:15:54;101015.20;;;
79492;BMP180;73788;53.048;18.472;2023-11-21T10:18:22;101019.20;;;
79492;BMP180;73788;53.048;18.472;2023-11-21T10:20:52;101019.80;;;
79492;BMP180;73788;53.048;18.472;2023-11-21T10:23:23;101019.80;;;
79492;BMP180;73788;53.048;18.472;2023-11-21T10:25:52;101021.80;;;
79492;BMP180;73788;53.048;18.472;2023-11-21T10:28:19;101021.20;;;
79492;BMP180;73788;53.048;18.472;2023-11-21T10:30:47;101023.80;;;
79492;BMP180;73788;53.048;18.472;2023-11-21T10:33:14;101022.40;;;
79492;BMP180;73788;53.048;18.472;2023-11-21T10:38:08;101033.80;;;
79492;BMP180;73788;53.048;18.472;2023-11-21T10:40:44;101037.60;;;
79492;BMP180;73788;53.048;18.472;2023-11-21T10:43:15;101038.20;;;
79492;BMP180;73788;53.048;18.472;2023-11-21T10:45:43;101033.60;;;
79492;BMP180;73788;53.048;18.472;2023-11-21T10:48:13;101034.00;;;
79492;BMP180;73788;53.048;18.472;2023-11-21T10:50:46;101044.40;;;
79492;BMP180;73788;53.048;18.472;2023-11-21T10:53:13;101046.00;;;
79492;BMP180;73788;53.048;18.472;2023-11-21T10:55:41;101048.40;;;
79492;BMP180;73788;53.048;18.472;2023-11-21T10:58:13;101049.40;;;
79492;BMP180;73788;53.048;18.472;2023-11-21T11:00:41;101050.40;;;
79492;BMP180;73788;53.048;18.472;2023-11-21T11:03:10;101053.80;;;
79492;BMP180;73788;53.048;18.472;2023-11-21T11:05:43;101056.20;;;
79492;BMP180;73788;53.048;18.472;2023-11-21T11:08:20;101055.20;;;
79492;BMP180;73788;53.048;18.472;2023-11-21T11:10:53;101056.80;;;
79492;BMP180;73788;53.048;18.472;2023-11-21T11:13:21;101059.80;;;
79492;BMP180;73788;53.048;18.472;2023-11-21T11:15:50;101061.00;;;
79492;BMP180;73788;53.048;18.472;2023-11-21T11:18:19;101061.60;;;
79492;BMP180;73788;53.048;18.472;2023-11-21T11:20:51;101061.40;;;
79492;BMP180;73788;53.048;18.472;2023-11-21T11:26:45;101063.00;;;
79492;BMP180;73788;53.048;18.472;2023-11-21T11:29:23;101060.20;;;
79492;BMP180;73788;53.048;18.472;2023-11-21T11:35:08;101068.00;;;
79492;BMP180;73788;53.048;18.472;2023-11-21T11:37:37;101071.40;;;
79492;BMP180;73788;53.048;18.472;2023-11-21T11:40:07;101076.60;;;
79492;BMP180;73788;53.048;18.472;2023-11-21T11:42:34;101079.60;;;
79492;BMP180;73788;53.048;18.472;2023-11-21T11:45:01;101084.80;;;
79492;BMP180;73788;53.048;18.472;2023-11-21T11:47:32;101091.00;;;
79492;BMP180;73788;53.048;18.472;2023-11-21T11:50:11;101094.00;;;
79492;BMP180;73788;53.048;18.472;2023-11-21T11:52:52;101095.80;;;
79492;BMP180;73788;53.048;18.472;2023-11-21T11:55:24;101098.40;;;
79492;BMP180;73788;53.048;18.472;2023-11-21T11:57:54;101104.00;;;
79492;BMP180;73788;53.048;18.472;2023-11-21T12:03:01;101114.80;;;
79492;BMP180;73788;53.048;18.472;2023-11-21T12:05:35;101117.40;;;
79492;BMP180;73788;53.048;18.472;2023-11-21T12:08:07;101121.80;;;
79492;BMP180;73788;53.048;18.472;2023-11-21T12:10:37;101127.20;;;
79492;BMP180;73788;53.048;18.472;2023-11-21T12:13:08;101127.00;;;
79492;BMP180;73788;53.048;18.472;2023-11-21T12:15:37;101130.00;;;
79492;BMP180;73788;53.048;18.472;2023-11-21T12:18:05;101128.20;;;
79492;BMP180;73788;53.048;18.472;2023-11-21T12:20:33;101129.20;;;
79492;BMP180;73788;53.048;18.472;2023-11-21T12:23:05;101131.40;;;
79492;BMP180;73788;53.048;18.472;2023-11-21T12:25:32;101133.00;;;
79492;BMP180;73788;53.048;18.472;2023-11-21T12:28:02;101134.80;;;
79492;BMP180;73788;53.048;18.472;2023-11-21T12:30:33;101139.00;;;
79492;BMP180;73788;53.048;18.472;2023-11-21T12:33:03;101132.00;;;
79492;BMP180;73788;53.048;18.472;2023-11-21T12:35:33;101136.00;;;
79492;BMP180;73788;53.048;18.472;2023-11-21T12:38:04;101142.00;;;
79492;BMP180;73788;53.048;18.472;2023-11-21T12:40:36;101144.60;;;
79492;BMP180;73788;53.048;18.472;2023-11-21T12:43:03;101146.20;;;
79492;BMP180;73788;53.048;18.472;2023-11-21T12:45:34;101140.80;;;
79492;BMP180;73788;53.048;18.472;2023-11-21T12:48:04;101141.60;;;
79492;BMP180;73788;53.048;18.472;2023-11-21T12:50:36;101141.80;;;
79492;BMP180;73788;53.048;18.472;2023-11-21T12:53:05;101139.80;;;
79492;BMP180;73788;53.048;18.472;2023-11-21T12:55:33;101141.40;;;
79492;BMP180;73788;53.048;18.472;2023-11-21T12:58:09;101136.20;;;
79492;BMP180;73788;53.048;18.472;2023-11-21T13:00:46;101138.80;;;
79492;BMP180;73788;53.048;18.472;2023-11-21T13:03:16;101147.20;;;
79492;BMP180;73788;53.048;18.472;2023-11-21T13:05:48;101148.40;;;
79492;BMP180;73788;53.048;18.472;2023-11-21T13:08:22;101149.20;;;
79492;BMP180;73788;53.048;18.472;2023-11-21T13:10:54;101155.60;;;
79492;BMP180;73788;53.048;18.472;2023-11-21T13:13:23;101162.40;;;
79492;BMP180;73788;53.048;18.472;2023-11-21T13:15:56;101169.00;;;
79492;BMP180;73788;53.048;18.472;2023-11-21T13:18:25;101168.80;;;
79492;BMP180;73788;53.048;18.472;2023-11-21T13:20:58;101174.40;;;
79492;BMP180;73788;53.048;18.472;2023-11-21T13:23:26;101182.20;;;
79492;BMP180;73788;53.048;18.472;2023-11-21T13:25:54;101187.60;;;
79492;BMP180;73788;53.048;18.472;2023-11-21T13:28:21;101192.00;;;
79492;BMP180;73788;53.048;18.472;2023-11-21T13:30:51;101189.60;;;
79492;BMP180;73788;53.048;18.472;2023-11-21T13:33:20;101194.00;;;
79492;BMP180;73788;53.048;18.472;2023-11-21T13:35:54;101195.80;;;
79492;BMP180;73788;53.048;18.472;2023-11-21T13:38:23;101198.20;;;
79492;BMP180;73788;53.048;18.472;2023-11-21T13:40:53;101198.60;;;
79492;BMP180;73788;53.048;18.472;2023-11-21T13:43:23;101203.80;;;
79492;BMP180;73788;53.048;18.472;2023-11-21T13:45:54;101213.40;;;
79492;BMP180;73788;53.048;18.472;2023-11-21T13:48:40;101212.60;;;
79492;BMP180;73788;53.048;18.472;2023-11-21T13:51:15;101219.20;;;
79492;BMP180;73788;53.048;18.472;2023-11-21T13:53:46;101218.80;;;
79492;BMP180;73788;53.048;18.472;2023-11-21T13:56:17;101229.60;;;
79492;BMP180;73788;53.048;18.472;2023-11-21T13:58:49;101230.60;;;
79492;BMP180;73788;53.048;18.472;2023-11-21T14:01:23;101234.60;;;
79492;BMP180;73788;53.048;18.472;2023-11-21T14:04:04;101235.60;;;
79492;BMP180;73788;53.048;18.472;2023-11-21T14:06:47;101244.80;;;
79492;BMP180;73788;53.048;18.472;2023-11-21T14:09:17;101247.20;;;
79492;BMP180;73788;53.048;18.472;2023-11-21T14:11:56;101249.20;;;
79492;BMP180;73788;53.048;18.472;2023-11-21T14:14:27;101248.80;;;
79492;BMP180;73788;53.048;18.472;2023-11-21T14:16:56;101259.20;;;
79492;BMP180;73788;53.048;18.472;2023-11-21T14:19:27;101262.20;;;
79492;BMP180;73788;53.048;18.472;2023-11-21T14:21:58;101260.40;;;
79492;BMP180;73788;53.048;18.472;2023-11-21T14:24:26;101265.40;;;
79492;BMP180;73788;53.048;18.472;2023-11-21T14:26:53;101272.60;;;
79492;BMP180;73788;53.048;18.472;2023-11-21T14:29:21;101274.20;;;
79492;BMP180;73788;53.048;18.472;2023-11-21T14:31:50;101276.60;;;
79492;BMP180;73788;53.048;18.472;2023-11-21T14:34:18;101276.60;;;
79492;BMP180;73788;53.048;18.472;2023-11-21T14:36:45;101277.60;;;
79492;BMP180;73788;53.048;18.472;2023-11-21T14:39:12;101286.40;;;
79492;BMP180;73788;53.048;18.472;2023-11-21T14:41:55;101290.20;;;
79492;BMP180;73788;53.048;18.472;2023-11-21T14:44:27;101285.00;;;
79492;BMP180;73788;53.048;18.472;2023-11-21T14:46:59;101290.00;;;
79492;BMP180;73788;53.048;18.472;2023-11-21T14:49:27;101296.20;;;
79492;BMP180;73788;53.048;18.472;2023-11-21T14:52:02;101295.00;;;
79492;BMP180;73788;53.048;18.472;2023-11-21T14:54:50;101298.00;;;
79492;BMP180;73788;53.048;18.472;2023-11-21T14:57:26;101302.20;;;
79492;BMP180;73788;53.048;18.472;2023-11-21T14:59:53;101301.80;;;
79492;BMP180;73788;53.048;18.472;2023-11-21T15:02:24;101299.40;;;
79492;BMP180;73788;53.048;18.472;2023-11-21T15:05:10;101304.60;;;
79492;BMP180;73788;53.048;18.472;2023-11-21T15:07:43;101303.00;;;
79492;BMP180;73788;53.048;18.472;2023-11-21T15:10:11;101307.20;;;